Time;durP1;ratioP1;P1;durP2;ratioP2;P2;SDS_P1;SDS_P2;PMS_P1;PMS_P2;Temp;Humidity;BMP_temperature;BMP_pressure;BME280_temperature;BME280_humidity;BME280_pressure;Samples;Min_cycle;Max_cycle;Signal;HPM_P1;HPM_P2
2023/01/04 00:02:08;;;;;;;16.03;8.80;;;6.90;43.70;;;;;;5019690;28;20474;-62
2023/01/04 00:04:34;;;;;;;19.17;10.57;;;7.00;43.70;;;;;;5019304;28;20837;-62
2023/01/04 00:07:01;;;;;;;19.30;10.20;;;6.90;43.90;;;;;;5022049;28;20939;-62
2023/01/04 00:09:29;;;;;;;16.73;9.03;;;6.90;44.10;;;;;;5020228;28;20475;-62
2023/01/04 00:11:56;;;;;;;15.83;9.20;;;6.90;44.30;;;;;;5020108;28;20482;-62
2023/01/04 00:14:23;;;;;;;17.53;10.47;;;6.90;44.50;;;;;;5015569;28;20494;-62
2023/01/04 00:16:49;;;;;;;19.30;10.43;;;7.00;44.40;;;;;;5021394;28;20459;-62
2023/01/04 00:19:16;;;;;;;17.07;8.77;;;6.90;44.70;;;;;;5021278;28;20478;-62
2023/01/04 00:21:43;;;;;;;18.40;10.53;;;6.90;44.70;;;;;;5021510;28;20458;-62
2023/01/04 00:24:10;;;;;;;18.70;10.13;;;6.90;44.80;;;;;;5019365;28;21141;-62
2023/01/04 00:26:38;;;;;;;18.77;10.87;;;6.90;44.80;;;;;;5023505;28;20463;-62
2023/01/04 00:29:06;;;;;;;20.30;11.00;;;6.90;44.80;;;;;;5024647;28;20482;-62
2023/01/04 00:31:34;;;;;;;18.10;11.07;;;7.00;44.90;;;;;;5024035;28;20486;-62
2023/01/04 00:34:04;;;;;;;19.10;10.10;;;7.00;44.90;;;;;;5019907;28;20470;-62
2023/01/04 00:36:32;;;;;;;17.13;10.13;;;7.00;45.00;;;;;;5024109;28;20470;-62
2023/01/04 00:39:08;;;;;;;20.73;11.90;;;7.00;45.00;;;;;;5024534;28;20494;-62
2023/01/04 00:41:39;;;;;;;23.27;11.90;;;7.00;45.00;;;;;;5023041;28;20459;-62
2023/01/04 00:44:07;;;;;;;20.80;12.70;;;7.00;45.00;;;;;;5020945;28;20459;-62
2023/01/04 00:46:35;;;;;;;22.17;12.50;;;7.10;45.00;;;;;;5023521;28;20554;-61
2023/01/04 00:49:02;;;;;;;19.60;11.00;;;7.10;45.10;;;;;;5021620;28;20498;-61
2023/01/04 00:51:30;;;;;;;20.47;10.67;;;7.10;45.10;;;;;;5020928;28;21013;-61
2023/01/04 00:53:57;;;;;;;22.90;11.37;;;7.10;44.90;;;;;;5022387;28;20462;-61
2023/01/04 00:56:24;;;;;;;18.57;10.30;;;7.10;44.90;;;;;;5018629;28;20459;-62
2023/01/04 00:58:55;;;;;;;20.93;11.20;;;7.10;44.80;;;;;;5023550;28;20845;-61
2023/01/04 01:01:22;;;;;;;17.27;9.93;;;7.10;44.80;;;;;;5020432;28;21052;-61
2023/01/04 01:03:53;;;;;;;16.27;9.40;;;7.10;44.60;;;;;;5021272;28;20545;-62
2023/01/04 01:06:20;;;;;;;17.30;9.87;;;7.10;44.60;;;;;;5021331;28;20513;-62
2023/01/04 01:08:47;;;;;;;19.37;9.80;;;7.20;44.40;;;;;;5023416;28;20483;-61
2023/01/04 01:11:14;;;;;;;17.60;10.33;;;7.20;44.30;;;;;;5023147;28;20475;-61
2023/01/04 01:13:41;;;;;;;17.80;9.60;;;7.20;44.10;;;;;;5022330;28;20451;-62
2023/01/04 01:16:12;;;;;;;18.73;10.40;;;7.20;44.20;;;;;;5021712;28;21237;-61
2023/01/04 01:18:40;;;;;;;17.30;10.43;;;7.20;44.10;;;;;;5018243;28;20486;-62
2023/01/04 01:21:08;;;;;;;16.87;10.43;;;7.20;43.80;;;;;;5022224;28;20458;-61
2023/01/04 01:23:34;;;;;;;16.03;8.50;;;7.20;43.30;;;;;;5016135;28;20459;-62
2023/01/04 01:26:02;;;;;;;18.97;11.20;;;7.20;43.70;;;;;;5022637;28;20466;-61
2023/01/04 01:28:29;;;;;;;14.13;8.43;;;7.20;42.80;;;;;;5021602;28;20483;-61
2023/01/04 01:30:58;;;;;;;14.17;8.10;;;7.20;43.10;;;;;;5025530;28;21036;-62
2023/01/04 01:33:26;;;;;;;16.87;9.57;;;7.10;42.90;;;;;;5023194;28;21013;-61
2023/01/04 01:35:53;;;;;;;15.43;9.27;;;7.00;43.20;;;;;;5016172;28;20458;-62
2023/01/04 01:38:20;;;;;;;18.43;10.13;;;6.90;43.30;;;;;;5025353;28;20483;-61
2023/01/04 01:40:46;;;;;;;15.70;9.17;;;6.90;43.40;;;;;;5023191;28;20462;-61
2023/01/04 01:43:18;;;;;;;16.27;9.10;;;6.70;43.50;;;;;;5022808;28;20971;-61
2023/01/04 01:45:46;;;;;;;16.47;9.70;;;6.60;43.50;;;;;;5023604;28;21550;-62
2023/01/04 01:48:18;;;;;;;15.83;8.87;;;6.60;43.70;;;;;;5019436;28;20497;-62
2023/01/04 01:50:50;;;;;;;15.27;9.37;;;6.50;43.80;;;;;;5022587;28;20483;-62
2023/01/04 01:53:17;;;;;;;16.73;9.83;;;6.50;43.90;;;;;;5020665;28;20467;-61
2023/01/04 01:55:46;;;;;;;16.40;9.73;;;6.50;44.10;;;;;;5018840;28;20455;-62
2023/01/04 01:58:19;;;;;;;17.00;9.73;;;6.40;44.20;;;;;;5022798;28;20483;-62
2023/01/04 02:00:46;;;;;;;18.27;10.07;;;6.50;44.40;;;;;;5024526;28;20829;-61
2023/01/04 02:03:18;;;;;;;16.77;9.53;;;6.50;44.50;;;;;;5023873;28;20459;-62
2023/01/04 02:05:51;;;;;;;19.10;10.63;;;6.60;44.60;;;;;;5020905;28;20469;-62
2023/01/04 02:08:21;;;;;;;17.77;9.10;;;6.60;44.70;;;;;;5020328;28;20491;-62
2023/01/04 02:10:48;;;;;;;17.37;9.60;;;6.70;45.00;;;;;;5019522;28;20800;-61
2023/01/04 02:13:17;;;;;;;21.47;11.20;;;6.70;45.00;;;;;;5019550;28;20464;-61
2023/01/04 02:15:57;;;;;;;17.40;11.07;;;6.70;45.20;;;;;;5026576;28;20469;-61
2023/01/04 02:18:31;;;;;;;17.80;10.33;;;6.80;45.20;;;;;;5024373;28;20482;-62
2023/01/04 02:21:06;;;;;;;19.60;10.70;;;6.80;45.00;;;;;;5021955;28;20453;-61
2023/01/04 02:24:06;;;;;;;18.70;10.70;;;6.90;45.00;;;;;;5026957;28;20450;-60
2023/01/04 02:27:06;;;;;;;17.60;9.73;;;6.90;45.10;;;;;;5025865;28;20543;-61
2023/01/04 02:30:02;;;;;;;17.20;9.93;;;6.90;45.20;;;;;;5023109;28;21133;-61
2023/01/04 02:32:51;;;;;;;16.80;10.07;;;6.90;44.80;;;;;;5024406;28;20482;-61
2023/01/04 02:35:25;;;;;;;17.13;9.53;;;6.90;44.80;;;;;;5024719;28;20466;-61
2023/01/04 02:38:03;;;;;;;19.40;11.40;;;7.00;44.60;;;;;;5023155;28;20506;-61
2023/01/04 02:40:40;;;;;;;18.70;10.23;;;7.00;44.50;;;;;;5026811;28;20463;-62
2023/01/04 02:46:05;;;;;;;19.40;10.83;;;7.00;44.10;;;;;;5027111;28;20449;-61
2023/01/04 02:51:30;;;;;;;16.47;8.90;;;7.00;43.90;;;;;;5024717;28;20501;-61
2023/01/04 02:54:00;;;;;;;16.77;10.50;;;7.00;43.80;;;;;;5019803;28;20482;-61
2023/01/04 02:56:45;;;;;;;16.33;9.60;;;7.00;43.50;;;;;;5027514;28;20467;-62
2023/01/04 02:59:28;;;;;;;16.70;9.00;;;7.00;43.60;;;;;;5019831;28;20485;-61
2023/01/04 03:07:53;;;;;;;15.73;8.73;;;7.00;43.30;;;;;;5027381;28;21018;-62
2023/01/04 03:10:29;;;;;;;15.20;8.33;;;7.00;43.40;;;;;;5020835;28;20467;-62
2023/01/04 03:13:00;;;;;;;14.63;8.60;;;7.00;43.40;;;;;;5021422;28;20495;-62
2023/01/04 03:15:30;;;;;;;14.80;8.23;;;7.00;43.40;;;;;;5024060;28;20967;-62
2023/01/04 03:18:00;;;;;;;17.00;9.60;;;7.00;43.00;;;;;;5028145;28;20479;-62
2023/01/04 03:20:31;;;;;;;17.30;9.73;;;7.00;44.00;;;;;;5027509;28;20466;-62
2023/01/04 03:37:07;;;;;;;15.80;9.93;;;7.00;43.90;;;;;;5020330;28;20834;-62
2023/01/04 03:48:30;;;;;;;15.03;8.40;;;7.10;44.00;;;;;;5024452;28;20937;-62
2023/01/04 03:51:03;;;;;;;16.97;9.30;;;7.10;44.00;;;;;;5023534;28;20468;-61
2023/01/04 03:53:34;;;;;;;15.07;8.80;;;7.10;44.00;;;;;;5017726;28;20460;-62
2023/01/04 03:56:03;;;;;;;14.20;8.43;;;7.10;44.00;;;;;;5020821;28;20459;-61
2023/01/04 03:58:30;;;;;;;14.53;9.03;;;7.20;43.90;;;;;;5022389;28;20491;-62
2023/01/04 04:01:02;;;;;;;13.93;8.37;;;7.20;44.30;;;;;;5026138;28;20478;-61
2023/01/04 04:09:00;;;;;;;18.53;8.90;;;7.20;43.60;;;;;;5022270;28;20741;-62
2023/01/04 04:11:32;;;;;;;16.10;9.23;;;7.20;43.20;;;;;;5024276;28;20841;-62
2023/01/04 04:14:00;;;;;;;14.30;7.63;;;7.20;43.20;;;;;;5023355;28;20485;-61
2023/01/04 04:16:28;;;;;;;15.97;9.90;;;7.20;43.00;;;;;;5024376;28;20990;-62
2023/01/04 04:18:55;;;;;;;13.80;8.93;;;7.20;43.00;;;;;;5022964;28;20815;-61
2023/01/04 04:21:22;;;;;;;15.70;8.50;;;7.20;43.10;;;;;;5017418;28;20487;-62
2023/01/04 04:23:48;;;;;;;13.57;8.73;;;7.20;43.10;;;;;;5024236;28;20463;-62
2023/01/04 04:26:17;;;;;;;14.03;8.10;;;7.20;43.20;;;;;;5021522;28;20478;-61
2023/01/04 04:28:44;;;;;;;15.07;8.97;;;7.20;43.10;;;;;;5024341;28;20849;-61
2023/01/04 04:31:10;;;;;;;13.33;7.87;;;7.30;43.10;;;;;;5018704;28;20486;-61
2023/01/04 04:33:37;;;;;;;18.10;8.53;;;7.20;43.20;;;;;;5022872;28;20467;-62
2023/01/04 04:36:05;;;;;;;14.77;8.60;;;7.30;43.20;;;;;;5023697;28;20463;-61
2023/01/04 04:38:32;;;;;;;14.00;7.90;;;7.30;43.10;;;;;;5023226;28;20855;-61
2023/01/04 04:43:44;;;;;;;14.73;8.30;;;7.40;42.60;;;;;;5020540;28;20446;-61
2023/01/04 04:46:11;;;;;;;13.30;7.87;;;7.40;42.40;;;;;;5021865;28;20462;-62
2023/01/04 04:48:38;;;;;;;17.90;8.60;;;7.30;42.30;;;;;;5020995;28;20491;-62
2023/01/04 04:51:05;;;;;;;15.47;7.70;;;7.40;42.30;;;;;;5025791;28;20477;-61
2023/01/04 04:53:32;;;;;;;14.67;8.93;;;7.40;42.20;;;;;;5024531;28;20834;-62
2023/01/04 04:55:59;;;;;;;15.33;8.10;;;7.40;42.20;;;;;;5024190;28;20470;-62
2023/01/04 04:58:26;;;;;;;12.50;6.90;;;7.40;41.90;;;;;;5021825;28;20562;-62
2023/01/04 05:00:54;;;;;;;13.90;8.37;;;7.50;41.90;;;;;;5022976;28;20481;-61
2023/01/04 05:03:21;;;;;;;17.77;8.63;;;7.40;41.70;;;;;;5019468;28;20458;-62
2023/01/04 05:05:48;;;;;;;17.03;8.70;;;7.40;41.90;;;;;;5022368;28;20459;-62
2023/01/04 05:08:14;;;;;;;17.10;9.77;;;7.40;42.00;;;;;;5022685;28;20482;-62
2023/01/04 05:10:41;;;;;;;14.40;8.57;;;7.50;42.00;;;;;;5017332;28;20466;-62
2023/01/04 05:13:11;;;;;;;15.67;9.00;;;7.40;41.70;;;;;;5023756;28;21157;-62
2023/01/04 05:15:40;;;;;;;15.40;9.00;;;7.40;41.40;;;;;;5024413;28;20541;-62
2023/01/04 05:18:09;;;;;;;13.03;7.30;;;7.40;41.30;;;;;;5022319;28;20483;-62
2023/01/04 05:20:36;;;;;;;15.13;8.00;;;7.50;40.90;;;;;;5024217;28;20464;-62
2023/01/04 05:23:03;;;;;;;13.73;7.93;;;7.50;40.70;;;;;;5023398;28;20462;-62
2023/01/04 05:25:30;;;;;;;13.57;7.30;;;7.50;40.40;;;;;;5025840;28;20463;-62
2023/01/04 05:27:57;;;;;;;14.30;6.90;;;7.50;39.90;;;;;;5019582;28;20493;-61
2023/01/04 05:33:10;;;;;;;14.40;7.60;;;7.50;39.80;;;;;;5019306;28;20481;-61
2023/01/04 05:35:37;;;;;;;11.93;7.00;;;7.50;39.60;;;;;;5020705;28;20937;-61
2023/01/04 05:38:03;;;;;;;13.27;7.23;;;7.50;39.30;;;;;;5014843;28;20483;-62
2023/01/04 05:40:30;;;;;;;14.93;7.93;;;7.50;39.20;;;;;;5020015;28;20459;-62
2023/01/04 05:42:57;;;;;;;13.00;6.50;;;7.50;39.40;;;;;;5022123;28;20455;-61
2023/01/04 05:45:24;;;;;;;13.47;7.47;;;7.50;39.40;;;;;;5020670;28;20485;-62
2023/01/04 05:47:52;;;;;;;12.20;7.37;;;7.50;39.40;;;;;;5021779;28;20503;-61
2023/01/04 05:50:21;;;;;;;12.73;7.67;;;7.50;39.20;;;;;;5027348;28;20451;-62
2023/01/04 05:52:49;;;;;;;14.67;7.60;;;7.50;39.30;;;;;;5027223;28;20874;-62
2023/01/04 05:55:16;;;;;;;13.20;7.30;;;7.50;39.20;;;;;;5026862;28;20466;-61
2023/01/04 05:57:43;;;;;;;14.60;7.47;;;7.40;39.20;;;;;;5027825;28;20479;-61
2023/01/04 06:00:11;;;;;;;13.90;8.27;;;7.40;39.20;;;;;;5024791;28;20463;-61
2023/01/04 06:02:39;;;;;;;13.57;7.77;;;7.40;39.20;;;;;;5026763;28;20479;-61
2023/01/04 06:05:06;;;;;;;12.47;7.77;;;7.40;39.30;;;;;;5020619;28;20477;-62
2023/01/04 06:07:34;;;;;;;15.40;7.67;;;7.50;39.50;;;;;;5023681;28;21030;-62
2023/01/04 06:10:01;;;;;;;16.70;7.70;;;7.50;39.50;;;;;;5027338;28;20471;-61
2023/01/04 06:12:28;;;;;;;15.53;8.53;;;7.50;39.60;;;;;;5020369;28;20489;-62
2023/01/04 06:14:55;;;;;;;14.93;8.40;;;7.50;39.60;;;;;;5026130;28;20462;-61
2023/01/04 06:17:22;;;;;;;12.20;7.63;;;7.50;39.60;;;;;;5025699;28;20462;-62
2023/01/04 06:19:48;;;;;;;15.03;8.17;;;7.50;39.60;;;;;;5029295;28;20459;-62
2023/01/04 06:22:15;;;;;;;15.77;8.73;;;7.50;39.70;;;;;;5027355;28;20459;-62
2023/01/04 06:24:43;;;;;;;15.27;9.03;;;7.50;39.80;;;;;;5027483;28;20462;-62
2023/01/04 06:27:10;;;;;;;13.30;6.93;;;7.50;39.90;;;;;;5022087;28;20498;-61
2023/01/04 06:29:37;;;;;;;13.17;8.40;;;7.50;40.10;;;;;;5027204;28;20814;-62
2023/01/04 06:32:04;;;;;;;13.63;7.27;;;7.50;40.10;;;;;;5024038;28;20491;-62
2023/01/04 06:34:30;;;;;;;15.57;9.73;;;7.50;40.30;;;;;;5020363;28;20466;-62
2023/01/04 06:36:57;;;;;;;12.60;8.10;;;7.50;40.30;;;;;;5025258;28;20874;-62
2023/01/04 06:39:24;;;;;;;14.07;8.40;;;7.50;40.40;;;;;;5027348;28;20483;-61
2023/01/04 06:41:52;;;;;;;14.03;7.10;;;7.50;40.50;;;;;;5021278;28;20462;-62
2023/01/04 06:44:19;;;;;;;14.23;7.83;;;7.50;40.70;;;;;;5023990;28;20470;-62
2023/01/04 06:46:45;;;;;;;14.87;8.60;;;7.50;40.60;;;;;;5026503;28;20478;-62
2023/01/04 06:49:13;;;;;;;14.87;8.43;;;7.50;40.70;;;;;;5024368;28;21091;-61
2023/01/04 06:51:40;;;;;;;12.80;7.23;;;7.50;40.50;;;;;;5026400;28;20471;-62
2023/01/04 06:54:10;;;;;;;12.33;7.80;;;7.50;40.50;;;;;;5024562;28;20467;-62
2023/01/04 06:56:37;;;;;;;12.90;7.10;;;7.50;40.50;;;;;;5028260;28;20542;-61
2023/01/04 06:59:05;;;;;;;13.00;7.93;;;7.50;40.50;;;;;;5024548;28;20578;-61
2023/01/04 07:01:32;;;;;;;14.57;7.97;;;7.50;40.60;;;;;;5023817;28;20481;-61
2023/01/04 07:03:59;;;;;;;12.70;6.63;;;7.60;40.40;;;;;;5021571;28;20450;-62
2023/01/04 07:06:25;;;;;;;12.67;7.87;;;7.50;40.40;;;;;;5026361;28;20455;-62
2023/01/04 07:08:52;;;;;;;14.47;8.13;;;7.60;40.50;;;;;;5024797;28;20997;-62
2023/01/04 07:11:19;;;;;;;11.73;7.00;;;7.60;40.40;;;;;;5022770;28;20460;-62
2023/01/04 07:13:46;;;;;;;13.80;8.13;;;7.60;40.40;;;;;;5017727;23;21009;-62
2023/01/04 07:16:14;;;;;;;14.30;7.80;;;7.60;40.30;;;;;;5023211;28;20477;-62
2023/01/04 07:18:40;;;;;;;11.43;6.83;;;7.60;40.30;;;;;;5029046;28;20455;-62
2023/01/04 07:21:07;;;;;;;13.07;8.10;;;7.60;40.30;;;;;;5024246;28;20463;-62
2023/01/04 07:23:34;;;;;;;11.23;6.90;;;7.60;40.30;;;;;;5019371;28;20489;-62
2023/01/04 07:26:02;;;;;;;11.67;7.10;;;7.70;40.40;;;;;;5025892;28;20462;-62
2023/01/04 07:31:14;;;;;;;13.70;7.83;;;7.70;40.40;;;;;;5025473;28;21024;-61
2023/01/04 07:33:41;;;;;;;13.53;8.13;;;7.80;40.10;;;;;;5023506;28;20995;-61
2023/01/04 07:36:08;;;;;;;16.03;8.07;;;7.90;40.10;;;;;;5023646;28;20466;-61
2023/01/04 07:38:35;;;;;;;14.27;8.13;;;7.90;39.70;;;;;;5026343;28;20837;-62
2023/01/04 07:41:02;;;;;;;17.00;9.90;;;8.00;39.80;;;;;;5027824;28;20489;-62
2023/01/04 07:43:28;;;;;;;13.30;7.50;;;8.00;39.80;;;;;;5024847;28;20479;-62
2023/01/04 07:45:55;;;;;;;14.37;8.20;;;8.00;39.60;;;;;;5023717;28;20471;-61
2023/01/04 07:48:23;;;;;;;14.70;8.63;;;8.00;39.70;;;;;;5024731;28;20998;-62
2023/01/04 07:50:50;;;;;;;12.50;7.67;;;8.10;39.80;;;;;;5022871;28;20861;-62
2023/01/04 07:53:17;;;;;;;15.30;8.23;;;8.20;39.50;;;;;;5025185;28;20479;-61
2023/01/04 07:55:45;;;;;;;13.10;7.80;;;8.20;39.40;;;;;;5025499;28;20459;-62
2023/01/04 07:58:12;;;;;;;16.40;9.13;;;8.20;39.40;;;;;;5024242;28;20454;-62
2023/01/04 08:00:39;;;;;;;15.53;8.30;;;8.20;39.50;;;;;;5020548;28;20467;-61
2023/01/04 08:03:05;;;;;;;14.53;8.23;;;8.30;39.30;;;;;;5017834;28;20482;-62
2023/01/04 08:05:34;;;;;;;13.93;7.93;;;8.30;39.20;;;;;;5023651;28;20455;-62
2023/01/04 08:08:01;;;;;;;13.20;8.20;;;8.30;39.10;;;;;;5025243;28;20814;-62
2023/01/04 08:10:28;;;;;;;14.30;8.40;;;8.30;39.10;;;;;;5020813;28;20472;-61
2023/01/04 08:12:54;;;;;;;12.93;7.70;;;8.30;39.10;;;;;;5021678;28;20492;-62
2023/01/04 08:15:21;;;;;;;15.83;8.37;;;8.30;39.30;;;;;;5015192;28;20462;-62
2023/01/04 08:17:48;;;;;;;14.43;8.33;;;8.30;39.20;;;;;;5024489;28;20970;-62
2023/01/04 08:20:15;;;;;;;14.97;8.57;;;8.30;39.20;;;;;;5020606;28;20467;-62
2023/01/04 08:22:43;;;;;;;15.20;8.53;;;8.30;39.10;;;;;;5023187;28;20472;-63
2023/01/04 08:25:10;;;;;;;13.93;8.23;;;8.30;39.00;;;;;;5020058;28;20455;-62
2023/01/04 08:27:37;;;;;;;14.70;8.77;;;8.20;39.10;;;;;;5026724;28;20459;-62
2023/01/04 08:30:05;;;;;;;15.27;9.23;;;8.20;39.30;;;;;;5025767;28;20458;-63
2023/01/04 08:32:32;;;;;;;13.90;8.23;;;8.20;39.30;;;;;;5014551;28;20489;-62
2023/01/04 08:34:58;;;;;;;13.87;8.07;;;8.30;39.40;;;;;;5020775;28;20463;-63
2023/01/04 08:37:25;;;;;;;16.00;9.57;;;8.30;39.40;;;;;;5025069;28;20462;-62
2023/01/04 08:39:53;;;;;;;13.77;7.90;;;8.30;39.30;;;;;;5021508;28;20547;-62
2023/01/04 08:42:20;;;;;;;14.87;9.20;;;8.30;39.50;;;;;;5021699;28;20459;-63
2023/01/04 08:44:46;;;;;;;14.63;9.07;;;8.30;39.50;;;;;;5021504;28;20467;-62
2023/01/04 08:47:13;;;;;;;16.00;9.67;;;8.30;39.20;;;;;;5022601;28;20950;-63
2023/01/04 08:49:40;;;;;;;14.47;9.57;;;8.30;39.40;;;;;;5022133;28;20477;-63
2023/01/04 08:52:07;;;;;;;15.37;8.33;;;8.30;39.20;;;;;;5021194;28;20455;-63
2023/01/04 08:54:34;;;;;;;16.33;9.63;;;8.30;39.10;;;;;;5019541;28;20514;-63
2023/01/04 08:57:02;;;;;;;12.80;7.70;;;8.40;39.10;;;;;;5019062;28;20470;-62
2023/01/04 08:59:29;;;;;;;15.00;8.70;;;8.40;39.00;;;;;;5021340;28;20524;-63
2023/01/04 09:01:56;;;;;;;14.20;8.37;;;8.40;38.90;;;;;;5016411;28;20998;-63
2023/01/04 09:04:23;;;;;;;17.07;9.40;;;8.40;39.10;;;;;;5023194;28;20471;-62
2023/01/04 09:06:49;;;;;;;15.43;8.70;;;8.40;38.70;;;;;;5025093;28;20962;-63
2023/01/04 09:09:16;;;;;;;16.40;8.87;;;8.40;38.70;;;;;;5025452;28;20459;-63
2023/01/04 09:11:43;;;;;;;14.70;8.90;;;8.50;38.70;;;;;;5023315;28;20463;-63
2023/01/04 09:14:12;;;;;;;16.07;10.00;;;8.50;38.60;;;;;;5023006;28;20517;-63
2023/01/04 09:16:39;;;;;;;13.63;8.87;;;8.50;38.70;;;;;;5025965;28;20470;-62
2023/01/04 09:19:07;;;;;;;15.27;9.40;;;8.50;38.80;;;;;;5025851;28;20463;-63
2023/01/04 09:21:34;;;;;;;14.83;9.00;;;8.50;38.80;;;;;;5019374;28;20463;-63
2023/01/04 09:24:01;;;;;;;14.10;8.43;;;8.50;38.40;;;;;;5027857;28;20850;-63
2023/01/04 09:26:28;;;;;;;14.97;9.00;;;8.50;38.40;;;;;;5034643;28;20575;-63
2023/01/04 09:28:56;;;;;;;16.37;9.63;;;8.60;38.20;;;;;;5027836;28;21003;-63
2023/01/04 09:31:26;;;;;;;13.27;8.00;;;8.60;38.20;;;;;;5027908;28;20474;-62
2023/01/04 09:33:53;;;;;;;15.27;8.47;;;8.60;38.30;;;;;;5026652;28;20495;-63
2023/01/04 09:36:20;;;;;;;14.00;8.40;;;8.60;38.20;;;;;;5025068;28;20462;-63
2023/01/04 09:38:48;;;;;;;15.50;8.20;;;8.60;38.30;;;;;;5034044;28;20469;-63
2023/01/04 09:41:24;;;;;;;12.50;7.27;;;8.70;38.40;;;;;;5026964;28;20459;-63
2023/01/04 09:43:52;;;;;;;11.73;7.20;;;8.70;38.10;;;;;;5026304;28;20523;-63
2023/01/04 09:46:29;;;;;;;12.43;7.30;;;8.70;38.00;;;;;;5027405;28;20967;-61
2023/01/04 09:49:05;;;;;;;14.37;8.63;;;8.70;38.10;;;;;;5028080;28;20597;-63
2023/01/04 09:51:36;;;;;;;12.50;7.13;;;8.60;38.20;;;;;;5025663;28;20982;-63
2023/01/04 09:54:08;;;;;;;14.30;7.90;;;8.70;38.20;;;;;;5025817;28;20489;-63
2023/01/04 09:56:37;;;;;;;14.63;8.40;;;8.70;38.40;;;;;;5028142;28;20459;-63
2023/01/04 09:59:08;;;;;;;12.80;7.77;;;8.70;38.40;;;;;;5022532;28;20471;-63
2023/01/04 10:01:44;;;;;;;12.03;6.90;;;8.70;38.60;;;;;;5025019;28;20482;-63
2023/01/04 10:04:17;;;;;;;11.70;6.40;;;8.70;38.50;;;;;;5023356;28;20470;-63
2023/01/04 10:06:44;;;;;;;13.33;7.70;;;8.70;38.20;;;;;;5017678;28;20464;-63
2023/01/04 10:09:13;;;;;;;11.10;7.07;;;8.70;38.30;;;;;;5015871;28;20471;-63
2023/01/04 10:11:53;;;;;;;9.83;6.50;;;8.70;38.40;;;;;;5022249;28;20985;-63
2023/01/04 10:14:55;;;;;;;10.63;5.83;;;8.70;38.50;;;;;;5016735;28;20490;-63
2023/01/04 10:17:42;;;;;;;12.57;6.50;;;8.70;38.40;;;;;;5024009;28;20462;-63
2023/01/04 10:20:40;;;;;;;15.20;6.83;;;8.70;38.80;;;;;;5020487;28;20455;-64
2023/01/04 10:23:14;;;;;;;12.40;6.90;;;8.70;39.30;;;;;;5021939;28;20475;-63
2023/01/04 10:25:48;;;;;;;10.20;5.80;;;8.70;39.10;;;;;;5027911;28;20461;-63
2023/01/04 10:28:27;;;;;;;9.67;5.70;;;8.80;39.20;;;;;;5026571;28;20470;-63
2023/01/04 10:31:01;;;;;;;11.93;6.80;;;8.90;39.00;;;;;;5022400;28;20474;-63
2023/01/04 10:33:38;;;;;;;10.73;6.63;;;9.00;39.10;;;;;;5024644;28;20905;-63
2023/01/04 10:36:15;;;;;;;13.00;6.73;;;9.10;39.10;;;;;;5022220;28;20466;-66
2023/01/04 10:38:42;;;;;;;10.87;6.70;;;9.30;38.50;;;;;;5025166;28;20882;-66
2023/01/04 10:41:12;;;;;;;10.93;6.47;;;9.40;38.10;;;;;;5026292;28;20956;-66
2023/01/04 10:43:46;;;;;;;11.80;6.20;;;9.40;37.30;;;;;;5029443;28;20467;-66
2023/01/04 10:46:20;;;;;;;11.87;6.50;;;9.40;36.40;;;;;;5022204;28;20470;-66
2023/01/04 10:48:54;;;;;;;10.83;6.33;;;9.40;36.20;;;;;;5022430;28;20463;-67
2023/01/04 10:51:27;;;;;;;8.70;5.00;;;9.40;36.30;;;;;;5020911;28;20461;-70
2023/01/04 10:53:58;;;;;;;10.07;6.03;;;9.30;36.30;;;;;;5011812;28;20493;-72
2023/01/04 10:56:31;;;;;;;11.87;6.50;;;9.20;36.20;;;;;;5020897;28;20470;-69
2023/01/04 10:59:04;;;;;;;11.00;6.00;;;9.20;36.60;;;;;;5024452;28;20483;-69
2023/01/04 11:01:36;;;;;;;10.10;5.60;;;9.10;36.80;;;;;;5012305;28;20482;-71
2023/01/04 11:04:11;;;;;;;9.23;5.30;;;9.10;37.10;;;;;;5020782;28;21298;-69
2023/01/04 11:06:44;;;;;;;9.13;5.80;;;9.00;37.30;;;;;;5002505;28;22672;-62
2023/01/04 11:09:17;;;;;;;12.13;6.30;;;9.00;37.30;;;;;;5019929;28;20469;-72
2023/01/04 11:11:49;;;;;;;11.43;5.90;;;9.10;37.10;;;;;;5026383;28;20458;-74
2023/01/04 11:14:16;;;;;;;11.03;5.93;;;9.10;37.00;;;;;;5012813;28;20568;-70
2023/01/04 11:16:46;;;;;;;11.90;6.57;;;9.10;36.80;;;;;;5016902;28;20794;-70
2023/01/04 11:19:15;;;;;;;10.47;6.57;;;9.00;36.80;;;;;;5018980;28;20470;-69
2023/01/04 11:21:55;;;;;;;12.40;6.50;;;9.00;36.90;;;;;;5019541;28;20471;-72
2023/01/04 11:24:23;;;;;;;10.50;5.70;;;8.90;37.40;;;;;;5024028;28;20721;-71
2023/01/04 11:26:53;;;;;;;10.83;6.10;;;9.00;36.60;;;;;;5024602;28;20458;-69
2023/01/04 11:29:29;;;;;;;9.07;5.27;;;8.90;36.90;;;;;;5024035;28;20463;-69
2023/01/04 11:32:01;;;;;;;10.53;6.20;;;9.00;36.60;;;;;;5021129;28;20470;-71
2023/01/04 11:34:50;;;;;;;9.83;5.80;;;9.00;36.60;;;;;;5019959;28;20578;-70
2023/01/04 11:37:26;;;;;;;9.93;6.33;;;9.00;36.60;;;;;;5019999;28;20473;-71
2023/01/04 11:40:22;;;;;;;10.80;5.87;;;9.00;36.80;;;;;;5017500;28;20459;-71
2023/01/04 11:42:51;;;;;;;9.80;5.60;;;9.10;36.90;;;;;;5019989;28;20490;-71
2023/01/04 11:45:24;;;;;;;13.53;6.37;;;9.10;36.50;;;;;;5020823;28;20455;-70
2023/01/04 11:47:52;;;;;;;9.50;5.70;;;9.20;36.50;;;;;;5018486;28;20463;-70
2023/01/04 11:50:42;;;;;;;10.07;5.37;;;9.20;36.50;;;;;;5016837;28;20464;-69
2023/01/04 11:53:26;;;;;;;10.33;6.37;;;9.30;36.00;;;;;;5011204;28;20589;-69
2023/01/04 11:56:15;;;;;;;9.13;5.40;;;9.30;35.70;;;;;;5018740;28;20462;-70
2023/01/04 11:58:45;;;;;;;11.60;5.90;;;9.40;35.80;;;;;;5013388;28;20558;-69
2023/01/04 12:01:23;;;;;;;10.47;5.43;;;9.60;35.60;;;;;;5010645;28;20497;-69
2023/01/04 12:03:50;;;;;;;9.30;5.03;;;9.90;34.80;;;;;;5020969;28;20475;-68
2023/01/04 12:06:22;;;;;;;8.57;5.00;;;10.10;33.80;;;;;;5018677;28;20463;-69
2023/01/04 12:08:50;;;;;;;13.53;4.80;;;10.20;33.00;;;;;;5020423;28;20466;-68
2023/01/04 12:11:27;;;;;;;9.03;4.80;;;10.30;32.80;;;;;;5022890;28;20462;-70
2023/01/04 12:13:54;;;;;;;8.97;4.73;;;10.30;32.10;;;;;;5017444;28;20482;-69
2023/01/04 12:16:29;;;;;;;8.80;4.90;;;10.60;32.10;;;;;;5019091;28;20850;-64
2023/01/04 12:18:56;;;;;;;8.80;5.10;;;10.90;31.20;;;;;;4997422;28;21002;-66
2023/01/04 12:21:26;;;;;;;8.40;4.80;;;11.10;30.00;;;;;;5024988;28;20918;-65
2023/01/04 12:23:54;;;;;;;8.57;4.20;;;11.00;29.30;;;;;;5019050;28;20832;-65
2023/01/04 12:26:22;;;;;;;7.50;4.20;;;10.90;29.60;;;;;;5018108;28;20987;-65
2023/01/04 12:28:57;;;;;;;8.83;3.80;;;10.80;29.70;;;;;;5018989;28;20466;-65
2023/01/04 12:31:29;;;;;;;7.33;4.53;;;10.80;29.70;;;;;;5019825;28;20502;-65
2023/01/04 12:33:57;;;;;;;9.43;4.47;;;10.90;30.20;;;;;;5016452;28;20520;-65
2023/01/04 12:36:57;;;;;;;8.27;5.00;;;11.10;29.70;;;;;;5019119;28;20970;-65
2023/01/04 12:39:40;;;;;;;6.90;3.40;;;11.10;29.10;;;;;;5021180;28;20463;-65
2023/01/04 12:42:20;;;;;;;7.27;3.80;;;11.20;28.30;;;;;;5020672;28;21050;-65
2023/01/04 12:45:13;;;;;;;7.57;3.87;;;11.30;28.10;;;;;;5016802;28;20462;-65
2023/01/04 12:50:28;;;;;;;7.57;3.80;;;11.50;27.20;;;;;;5017550;28;20454;-65
2023/01/04 12:53:02;;;;;;;6.57;2.80;;;11.50;27.20;;;;;;5016844;28;20487;-65
2023/01/04 12:55:59;;;;;;;9.80;5.60;;;11.50;26.80;;;;;;5014968;28;20539;-65
2023/01/04 12:59:06;;;;;;;9.23;3.57;;;11.60;26.20;;;;;;5015311;28;20463;-65
2023/01/04 13:01:33;;;;;;;7.00;3.63;;;11.50;25.50;;;;;;5018537;28;20839;-66
2023/01/04 13:04:03;;;;;;;6.97;3.17;;;11.50;25.60;;;;;;5017626;28;20484;-65
2023/01/04 13:06:34;;;;;;;7.47;4.30;;;11.40;26.10;;;;;;5017309;28;20597;-65
2023/01/04 13:09:02;;;;;;;6.20;3.50;;;11.40;26.50;;;;;;5018261;28;20462;-65
2023/01/04 13:11:54;;;;;;;7.07;3.40;;;11.40;26.30;;;;;;5019045;28;21080;-64
2023/01/04 13:14:30;;;;;;;6.43;3.50;;;11.40;26.00;;;;;;5017472;28;20493;-64
2023/01/04 13:17:14;;;;;;;7.70;3.67;;;11.20;26.60;;;;;;5018842;28;20572;-65
2023/01/04 13:19:42;;;;;;;8.60;5.10;;;11.20;27.00;;;;;;5015950;28;20466;-64
2023/01/04 13:22:16;;;;;;;6.57;3.23;;;11.10;27.30;;;;;;5020883;28;20474;-65
2023/01/04 13:24:46;;;;;;;8.90;3.93;;;11.10;27.00;;;;;;5019022;28;20450;-64
2023/01/04 13:27:16;;;;;;;6.77;3.23;;;11.00;27.60;;;;;;5022600;28;20463;-65
2023/01/04 13:29:43;;;;;;;6.33;3.53;;;11.00;27.70;;;;;;5021055;28;20486;-64
2023/01/04 13:32:12;;;;;;;7.33;4.00;;;11.00;27.70;;;;;;5022814;28;20474;-65
2023/01/04 13:34:42;;;;;;;9.20;4.83;;;10.90;27.80;;;;;;5021472;28;20518;-64
2023/01/04 13:37:17;;;;;;;7.93;4.63;;;10.90;28.20;;;;;;5021940;28;20823;-65
2023/01/04 13:39:47;;;;;;;8.07;4.43;;;10.80;28.20;;;;;;5018281;28;20462;-64
2023/01/04 13:42:23;;;;;;;9.20;4.17;;;10.70;28.30;;;;;;5021787;28;20459;-65
2023/01/04 13:45:10;;;;;;;8.57;4.20;;;10.70;29.00;;;;;;5022262;28;20469;-64
2023/01/04 13:47:39;;;;;;;6.77;3.93;;;10.60;29.50;;;;;;5018072;28;20470;-64
2023/01/04 13:50:17;;;;;;;7.80;4.80;;;10.60;29.60;;;;;;5016656;28;20459;-64
2023/01/04 13:52:45;;;;;;;7.50;4.50;;;10.60;29.70;;;;;;5022885;28;20484;-64
2023/01/04 13:55:20;;;;;;;7.87;4.23;;;10.60;29.70;;;;;;5019367;28;20485;-64